Saint Louis, Oregon
Current Conditions -  °F | °C
As of 10:53 AM on Thursday 30 Oct 2014 (Local Time) from KMMV Reporting Station
Scattered Clouds Scattered Clouds  
Wind Chill: 58°   Ceiling: Unl
Heat Index: 58°   Visibility: 10mi
Dew Point: 56°   Wind: 6mph
Humidity: 93%   Direction: 340°NNW
Pressure: 29.86"   Gusts: NA
Location:  45.1057°N, 122.945°W
Report Text: KMMV 301753Z AUTO 34005KT 10SM FEW055 SCT080 14/13 A2986 RMK AO2 SLP110 60005 T01440133 10144 20128 58011
Loading
Personal Weather Stations






























Interactive Weather Map
Tropical Storm Tracking
New forecast layout! Learn more

10-Day Weather Forecast

Advertisements
Track Severe Weather on mobile